sensor_id;sensor_type;location;lat;lon;timestamp;P1;durP1;ratioP1;P2;durP2;ratioP2
75112;SDS011;63692;47.338;8.520;2023-04-28T04:02:45;8.10;;;3.85;;
75112;SDS011;63692;47.338;8.520;2023-04-28T04:05:11;6.28;;;2.88;;
75112;SDS011;63692;47.338;8.520;2023-04-28T04:07:36;4.38;;;2.40;;
75112;SDS011;63692;47.338;8.520;2023-04-28T04:10:02;6.55;;;2.78;;
75112;SDS011;63692;47.338;8.520;2023-04-28T04:14:55;5.05;;;2.60;;
75112;SDS011;63692;47.338;8.520;2023-04-28T04:17:21;6.18;;;2.70;;
75112;SDS011;63692;47.338;8.520;2023-04-28T04:20:05;5.78;;;3.22;;
75112;SDS011;63692;47.338;8.520;2023-04-28T04:22:41;5.45;;;2.75;;
75112;SDS011;63692;47.338;8.520;2023-04-28T04:25:07;6.38;;;2.78;;
75112;SDS011;63692;47.338;8.520;2023-04-28T04:27:37;7.78;;;2.80;;
75112;SDS011;63692;47.338;8.520;2023-04-28T04:30:24;6.10;;;3.15;;
75112;SDS011;63692;47.338;8.520;2023-04-28T04:50:35;6.38;;;3.13;;
75112;SDS011;63692;47.338;8.520;2023-04-28T05:00:31;4.97;;;2.70;;
75112;SDS011;63692;47.338;8.520;2023-04-28T05:02:57;4.15;;;2.65;;
75112;SDS011;63692;47.338;8.520;2023-04-28T05:05:24;6.00;;;2.50;;
75112;SDS011;63692;47.338;8.520;2023-04-28T05:42:27;3.90;;;2.65;;
75112;SDS011;63692;47.338;8.520;2023-04-28T06:10:01;4.47;;;3.03;;
75112;SDS011;63692;47.338;8.520;2023-04-28T06:22:26;6.53;;;2.70;;
75112;SDS011;63692;47.338;8.520;2023-04-28T06:42:06;4.80;;;2.47;;
75112;SDS011;63692;47.338;8.520;2023-04-28T07:09:23;5.55;;;2.55;;
75112;SDS011;63692;47.338;8.520;2023-04-28T07:11:48;7.13;;;2.28;;
75112;SDS011;63692;47.338;8.520;2023-04-28T07:14:14;4.85;;;2.13;;
75112;SDS011;63692;47.338;8.520;2023-04-28T07:16:40;6.57;;;2.80;;
75112;SDS011;63692;47.338;8.520;2023-04-28T07:19:05;7.93;;;2.65;;
75112;SDS011;63692;47.338;8.520;2023-04-28T07:21:31;6.10;;;2.30;;
75112;SDS011;63692;47.338;8.520;2023-04-28T07:23:58;9.02;;;2.55;;
75112;SDS011;63692;47.338;8.520;2023-04-28T07:26:23;7.38;;;2.45;;
75112;SDS011;63692;47.338;8.520;2023-04-28T07:28:49;5.25;;;2.53;;
75112;SDS011;63692;47.338;8.520;2023-04-28T07:31:15;4.78;;;2.38;;
75112;SDS011;63692;47.338;8.520;2023-04-28T07:33:41;4.78;;;2.60;;
75112;SDS011;63692;47.338;8.520;2023-04-28T07:36:07;5.10;;;2.33;;
75112;SDS011;63692;47.338;8.520;2023-04-28T07:38:33;6.00;;;2.75;;
75112;SDS011;63692;47.338;8.520;2023-04-28T07:40:59;7.00;;;2.40;;
75112;SDS011;63692;47.338;8.520;2023-04-28T07:43:25;6.55;;;2.42;;
75112;SDS011;63692;47.338;8.520;2023-04-28T07:45:51;4.15;;;2.10;;
75112;SDS011;63692;47.338;8.520;2023-04-28T07:48:17;5.55;;;2.28;;
75112;SDS011;63692;47.338;8.520;2023-04-28T07:50:42;6.43;;;2.50;;
75112;SDS011;63692;47.338;8.520;2023-04-28T07:53:08;10.07;;;3.20;;
75112;SDS011;63692;47.338;8.520;2023-04-28T07:55:33;7.43;;;2.30;;
75112;SDS011;63692;47.338;8.520;2023-04-28T07:57:59;5.68;;;2.72;;
75112;SDS011;63692;47.338;8.520;2023-04-28T08:00:25;4.80;;;2.10;;
75112;SDS011;63692;47.338;8.520;2023-04-28T08:02:51;7.47;;;2.25;;
75112;SDS011;63692;47.338;8.520;2023-04-28T08:05:16;6.03;;;2.38;;
75112;SDS011;63692;47.338;8.520;2023-04-28T08:07:42;3.95;;;2.30;;
75112;SDS011;63692;47.338;8.520;2023-04-28T08:10:08;5.95;;;2.30;;
75112;SDS011;63692;47.338;8.520;2023-04-28T08:12:34;4.80;;;2.40;;
75112;SDS011;63692;47.338;8.520;2023-04-28T08:15:00;7.35;;;3.50;;
75112;SDS011;63692;47.338;8.520;2023-04-28T08:17:26;4.55;;;2.22;;
75112;SDS011;63692;47.338;8.520;2023-04-28T08:19:51;5.38;;;2.65;;
75112;SDS011;63692;47.338;8.520;2023-04-28T08:22:17;5.05;;;2.03;;
75112;SDS011;63692;47.338;8.520;2023-04-28T08:24:42;5.47;;;2.30;;
75112;SDS011;63692;47.338;8.520;2023-04-28T08:27:08;3.60;;;2.10;;
75112;SDS011;63692;47.338;8.520;2023-04-28T08:29:34;6.15;;;2.38;;
75112;SDS011;63692;47.338;8.520;2023-04-28T08:31:59;3.30;;;2.10;;
75112;SDS011;63692;47.338;8.520;2023-04-28T08:34:30;3.30;;;2.20;;
75112;SDS011;63692;47.338;8.520;2023-04-28T08:36:56;3.92;;;2.13;;
75112;SDS011;63692;47.338;8.520;2023-04-28T08:39:22;4.28;;;2.20;;
75112;SDS011;63692;47.338;8.520;2023-04-28T08:41:50;3.70;;;2.10;;
75112;SDS011;63692;47.338;8.520;2023-04-28T08:44:16;3.90;;;2.60;;
75112;SDS011;63692;47.338;8.520;2023-04-28T08:46:42;5.15;;;2.30;;
75112;SDS011;63692;47.338;8.520;2023-04-28T08:49:13;6.32;;;3.10;;
75112;SDS011;63692;47.338;8.520;2023-04-28T08:51:49;5.57;;;2.42;;
75112;SDS011;63692;47.338;8.520;2023-04-28T08:54:19;5.38;;;2.60;;
75112;SDS011;63692;47.338;8.520;2023-04-28T08:56:47;8.60;;;2.50;;
75112;SDS011;63692;47.338;8.520;2023-04-28T08:59:13;22.42;;;2.97;;
75112;SDS011;63692;47.338;8.520;2023-04-28T09:01:40;7.40;;;2.42;;
75112;SDS011;63692;47.338;8.520;2023-04-28T09:04:05;4.40;;;2.05;;
75112;SDS011;63692;47.338;8.520;2023-04-28T09:06:34;6.60;;;2.60;;
75112;SDS011;63692;47.338;8.520;2023-04-28T09:09:17;4.20;;;2.10;;
75112;SDS011;63692;47.338;8.520;2023-04-28T09:11:50;5.05;;;2.70;;
75112;SDS011;63692;47.338;8.520;2023-04-28T09:14:20;5.10;;;2.35;;
75112;SDS011;63692;47.338;8.520;2023-04-28T09:16:48;6.32;;;2.45;;
75112;SDS011;63692;47.338;8.520;2023-04-28T09:29:55;5.15;;;2.70;;
75112;SDS011;63692;47.338;8.520;2023-04-28T09:32:21;4.80;;;2.92;;
75112;SDS011;63692;47.338;8.520;2023-04-28T09:34:48;4.97;;;2.30;;
75112;SDS011;63692;47.338;8.520;2023-04-28T09:37:15;6.00;;;3.28;;
75112;SDS011;63692;47.338;8.520;2023-04-28T09:39:44;4.70;;;2.63;;
75112;SDS011;63692;47.338;8.520;2023-04-28T09:42:13;6.88;;;2.83;;
75112;SDS011;63692;47.338;8.520;2023-04-28T09:44:55;4.82;;;2.67;;
75112;SDS011;63692;47.338;8.520;2023-04-28T09:47:28;5.20;;;2.70;;
75112;SDS011;63692;47.338;8.520;2023-04-28T09:50:02;5.07;;;2.80;;
75112;SDS011;63692;47.338;8.520;2023-04-28T09:52:32;7.57;;;2.50;;
75112;SDS011;63692;47.338;8.520;2023-04-28T09:55:05;7.40;;;2.95;;
75112;SDS011;63692;47.338;8.520;2023-04-28T09:58:25;6.60;;;3.05;;
75112;SDS011;63692;47.338;8.520;2023-04-28T10:01:39;5.60;;;2.78;;
75112;SDS011;63692;47.338;8.520;2023-04-28T10:04:08;8.27;;;3.33;;
75112;SDS011;63692;47.338;8.520;2023-04-28T10:06:36;6.75;;;3.28;;
75112;SDS011;63692;47.338;8.520;2023-04-28T10:09:04;8.43;;;3.30;;
75112;SDS011;63692;47.338;8.520;2023-04-28T10:14:01;5.70;;;2.97;;
75112;SDS011;63692;47.338;8.520;2023-04-28T10:16:28;5.75;;;3.42;;
75112;SDS011;63692;47.338;8.520;2023-04-28T10:18:55;6.50;;;3.30;;
75112;SDS011;63692;47.338;8.520;2023-04-28T10:21:21;4.40;;;3.00;;
75112;SDS011;63692;47.338;8.520;2023-04-28T10:24:08;7.43;;;3.42;;
75112;SDS011;63692;47.338;8.520;2023-04-28T10:29:17;8.63;;;3.60;;
75112;SDS011;63692;47.338;8.520;2023-04-28T10:37:01;5.90;;;3.47;;
75112;SDS011;63692;47.338;8.520;2023-04-28T10:39:26;9.40;;;3.55;;
75112;SDS011;63692;47.338;8.520;2023-04-28T10:41:52;5.80;;;3.65;;
75112;SDS011;63692;47.338;8.520;2023-04-28T10:47:10;5.68;;;3.78;;
75112;SDS011;63692;47.338;8.520;2023-04-28T10:59:28;7.75;;;4.10;;
75112;SDS011;63692;47.338;8.520;2023-04-28T11:16:49;6.20;;;3.60;;
75112;SDS011;63692;47.338;8.520;2023-04-28T11:21:57;5.75;;;4.00;;
75112;SDS011;63692;47.338;8.520;2023-04-28T11:24:23;7.28;;;3.88;;
75112;SDS011;63692;47.338;8.520;2023-04-28T11:26:50;5.22;;;3.58;;
75112;SDS011;63692;47.338;8.520;2023-04-28T11:29:29;7.80;;;4.00;;
75112;SDS011;63692;47.338;8.520;2023-04-28T11:31:55;8.23;;;3.92;;
75112;SDS011;63692;47.338;8.520;2023-04-28T11:34:20;9.38;;;4.60;;
75112;SDS011;63692;47.338;8.520;2023-04-28T11:36:47;9.55;;;4.53;;
75112;SDS011;63692;47.338;8.520;2023-04-28T11:39:13;8.48;;;4.40;;
75112;SDS011;63692;47.338;8.520;2023-04-28T11:41:43;7.50;;;4.13;;
75112;SDS011;63692;47.338;8.520;2023-04-28T11:46:43;7.63;;;4.50;;
75112;SDS011;63692;47.338;8.520;2023-04-28T11:49:14;6.13;;;4.03;;
75112;SDS011;63692;47.338;8.520;2023-04-28T11:51:40;8.00;;;4.82;;
75112;SDS011;63692;47.338;8.520;2023-04-28T11:54:07;7.72;;;4.68;;
75112;SDS011;63692;47.338;8.520;2023-04-28T11:56:36;8.93;;;4.78;;
75112;SDS011;63692;47.338;8.520;2023-04-28T11:59:07;7.18;;;4.85;;
75112;SDS011;63692;47.338;8.520;2023-04-28T12:01:44;5.38;;;4.13;;
75112;SDS011;63692;47.338;8.520;2023-04-28T12:04:12;9.00;;;5.35;;
75112;SDS011;63692;47.338;8.520;2023-04-28T12:06:38;7.55;;;4.32;;
75112;SDS011;63692;47.338;8.520;2023-04-28T12:09:17;7.97;;;4.70;;
75112;SDS011;63692;47.338;8.520;2023-04-28T12:11:52;7.63;;;4.38;;
75112;SDS011;63692;47.338;8.520;2023-04-28T12:14:22;5.05;;;3.40;;
75112;SDS011;63692;47.338;8.520;2023-04-28T12:16:48;10.57;;;4.22;;
75112;SDS011;63692;47.338;8.520;2023-04-28T12:19:15;7.88;;;3.78;;
75112;SDS011;63692;47.338;8.520;2023-04-28T12:21:41;9.38;;;3.53;;
75112;SDS011;63692;47.338;8.520;2023-04-28T12:26:39;7.10;;;4.15;;
75112;SDS011;63692;47.338;8.520;2023-04-28T12:29:06;8.05;;;4.20;;
75112;SDS011;63692;47.338;8.520;2023-04-28T12:31:42;6.90;;;3.33;;
75112;SDS011;63692;47.338;8.520;2023-04-28T12:34:12;8.57;;;3.50;;
75112;SDS011;63692;47.338;8.520;2023-04-28T12:36:38;5.57;;;3.72;;
75112;SDS011;63692;47.338;8.520;2023-04-28T12:39:03;7.68;;;4.22;;
75112;SDS011;63692;47.338;8.520;2023-04-28T12:41:29;6.07;;;3.63;;
75112;SDS011;63692;47.338;8.520;2023-04-28T12:43:55;5.97;;;3.70;;
75112;SDS011;63692;47.338;8.520;2023-04-28T12:46:20;5.07;;;3.00;;
75112;SDS011;63692;47.338;8.520;2023-04-28T12:48:46;8.18;;;3.20;;
75112;SDS011;63692;47.338;8.520;2023-04-28T12:51:11;5.53;;;2.60;;
75112;SDS011;63692;47.338;8.520;2023-04-28T12:53:37;5.15;;;1.98;;
75112;SDS011;63692;47.338;8.520;2023-04-28T12:56:03;8.95;;;2.38;;
75112;SDS011;63692;47.338;8.520;2023-04-28T12:58:29;4.68;;;2.72;;
75112;SDS011;63692;47.338;8.520;2023-04-28T13:00:54;5.15;;;2.08;;
75112;SDS011;63692;47.338;8.520;2023-04-28T13:03:20;4.80;;;1.90;;
75112;SDS011;63692;47.338;8.520;2023-04-28T13:05:46;4.20;;;1.63;;
75112;SDS011;63692;47.338;8.520;2023-04-28T13:08:12;2.88;;;1.40;;
75112;SDS011;63692;47.338;8.520;2023-04-28T14:20:03;3.88;;;2.63;;
75112;SDS011;63692;47.338;8.520;2023-04-28T14:22:49;4.78;;;2.53;;
75112;SDS011;63692;47.338;8.520;2023-04-28T14:25:18;4.80;;;2.20;;
75112;SDS011;63692;47.338;8.520;2023-04-28T14:43:57;6.47;;;3.03;;
75112;SDS011;63692;47.338;8.520;2023-04-28T15:19:30;3.45;;;2.25;;
75112;SDS011;63692;47.338;8.520;2023-04-28T15:26:51;3.70;;;1.98;;
75112;SDS011;63692;47.338;8.520;2023-04-28T15:31:45;5.50;;;2.28;;
75112;SDS011;63692;47.338;8.520;2023-04-28T15:34:11;5.03;;;2.05;;
75112;SDS011;63692;47.338;8.520;2023-04-28T15:36:37;5.90;;;2.25;;
75112;SDS011;63692;47.338;8.520;2023-04-28T15:39:04;3.70;;;2.50;;
75112;SDS011;63692;47.338;8.520;2023-04-28T15:51:20;4.43;;;2.38;;
75112;SDS011;63692;47.338;8.520;2023-04-28T15:53:46;4.15;;;2.35;;
75112;SDS011;63692;47.338;8.520;2023-04-28T16:09:15;3.70;;;2.28;;
75112;SDS011;63692;47.338;8.520;2023-04-28T16:11:43;4.97;;;3.10;;
75112;SDS011;63692;47.338;8.520;2023-04-28T16:14:09;5.32;;;2.80;;
75112;SDS011;63692;47.338;8.520;2023-04-28T16:16:34;3.70;;;2.47;;
75112;SDS011;63692;47.338;8.520;2023-04-28T16:19:00;5.22;;;2.58;;
75112;SDS011;63692;47.338;8.520;2023-04-28T16:21:27;5.85;;;2.88;;
75112;SDS011;63692;47.338;8.520;2023-04-28T16:23:52;5.72;;;2.83;;
75112;SDS011;63692;47.338;8.520;2023-04-28T16:26:18;5.05;;;2.38;;
75112;SDS011;63692;47.338;8.520;2023-04-28T16:28:43;7.70;;;2.63;;
75112;SDS011;63692;47.338;8.520;2023-04-28T16:31:09;7.13;;;2.67;;
75112;SDS011;63692;47.338;8.520;2023-04-28T16:33:35;6.53;;;3.00;;
75112;SDS011;63692;47.338;8.520;2023-04-28T16:38:28;7.15;;;4.10;;
75112;SDS011;63692;47.338;8.520;2023-04-28T16:40:54;5.28;;;3.40;;
75112;SDS011;63692;47.338;8.520;2023-04-28T16:43:20;5.45;;;3.40;;
75112;SDS011;63692;47.338;8.520;2023-04-28T16:45:46;4.95;;;2.95;;
75112;SDS011;63692;47.338;8.520;2023-04-28T16:48:16;5.22;;;3.08;;
75112;SDS011;63692;47.338;8.520;2023-04-28T16:50:44;7.13;;;3.17;;
75112;SDS011;63692;47.338;8.520;2023-04-28T16:53:09;8.10;;;3.67;;
75112;SDS011;63692;47.338;8.520;2023-04-28T17:18:23;5.78;;;2.80;;
75112;SDS011;63692;47.338;8.520;2023-04-28T17:20:53;6.70;;;2.90;;
75112;SDS011;63692;47.338;8.520;2023-04-28T17:33:25;8.75;;;3.60;;
75112;SDS011;63692;47.338;8.520;2023-04-28T17:36:11;9.18;;;3.13;;
75112;SDS011;63692;47.338;8.520;2023-04-28T17:38:54;4.63;;;2.70;;
75112;SDS011;63692;47.338;8.520;2023-04-28T17:41:20;8.23;;;2.70;;
75112;SDS011;63692;47.338;8.520;2023-04-28T17:44:24;8.25;;;2.70;;
75112;SDS011;63692;47.338;8.520;2023-04-28T17:46:52;5.80;;;2.47;;
75112;SDS011;63692;47.338;8.520;2023-04-28T17:49:18;5.13;;;2.70;;
75112;SDS011;63692;47.338;8.520;2023-04-28T18:09:32;7.70;;;2.83;;
75112;SDS011;63692;47.338;8.520;2023-04-28T18:11:58;13.13;;;3.97;;
